Time;durP1;ratioP1;P1;durP2;ratioP2;P2;SDS_P1;SDS_P2;PMS_P1;PMS_P2;Temp;Humidity;BMP_temperature;BMP_pressure;BME280_temperature;BME280_humidity;BME280_pressure;Samples;Min_cycle;Max_cycle;Signal;HPM_P1;HPM_P2
2022/12/26 00:00:33;;;;;;;;;;;;;;;16.49;40.67;95737.09;10401760;28;1882;-46
2022/12/26 00:05:35;;;;;;;;;;;;;;;16.51;40.59;95740.28;10397740;28;1942;-46
2022/12/26 00:10:35;;;;;;;;;;;;;;;16.49;40.59;95732.69;10391655;28;1996;-48
2022/12/26 00:15:41;;;;;;;;;;;;;;;16.51;40.61;95738.44;10408971;28;1972;-44
2022/12/26 00:20:41;;;;;;;;;;;;;;;16.53;40.55;95740.81;10400629;28;1898;-47
2022/12/26 00:25:42;;;;;;;;;;;;;;;16.50;40.52;95730.84;10405509;28;2073;-46
2022/12/26 00:30:42;;;;;;;;;;;;;;;16.54;40.48;95748.44;10395782;28;4472;-48
2022/12/26 00:35:43;;;;;;;;;;;;;;;16.50;40.58;95747.34;10398830;28;2231;-45
2022/12/26 00:40:43;;;;;;;;;;;;;;;16.50;40.73;95741.31;10394180;28;1973;-47
2022/12/26 00:45:44;;;;;;;;;;;;;;;16.55;40.48;95739.53;10397359;28;2171;-46
2022/12/26 00:50:44;;;;;;;;;;;;;;;16.52;40.49;95744.47;10399019;28;1998;-46
2022/12/26 00:55:45;;;;;;;;;;;;;;;16.47;40.69;95749.63;10397358;28;1923;-46
2022/12/26 01:00:45;;;;;;;;;;;;;;;16.50;40.54;95752.59;10390277;28;1965;-45
2022/12/26 01:05:46;;;;;;;;;;;;;;;16.49;40.64;95750.16;10392040;28;2030;-45
2022/12/26 01:10:47;;;;;;;;;;;;;;;16.45;40.70;95754.31;10398372;28;1971;-48
2022/12/26 01:15:48;;;;;;;;;;;;;;;16.47;40.51;95752.25;10401996;28;1946;-49
2022/12/26 01:20:48;;;;;;;;;;;;;;;16.49;40.55;95753.59;10397845;28;2101;-45
2022/12/26 01:25:49;;;;;;;;;;;;;;;16.47;40.64;95762.72;10398626;28;1958;-45
2022/12/26 01:30:49;;;;;;;;;;;;;;;16.49;40.48;95763.25;10395921;28;4440;-46
2022/12/26 01:35:50;;;;;;;;;;;;;;;16.49;40.52;95773.72;10390569;28;2054;-45
2022/12/26 01:41:15;;;;;;;;;;;;;;;16.44;40.53;95764.00;10400214;28;2003;-47
2022/12/26 01:46:10;;;;;;;;;;;;;;;16.46;40.54;95774.22;10394247;28;2025;-46
2022/12/26 01:51:11;;;;;;;;;;;;;;;16.45;40.58;95781.28;10390257;28;1930;-48
2022/12/26 01:56:15;;;;;;;;;;;;;;;16.49;40.51;95782.38;10413270;28;1928;-46
2022/12/26 02:01:16;;;;;;;;;;;;;;;16.44;40.59;95782.31;10413346;28;1915;-44
2022/12/26 02:06:16;;;;;;;;;;;;;;;16.44;40.55;95789.38;10383208;28;1946;-45
2022/12/26 02:11:18;;;;;;;;;;;;;;;16.45;40.53;95788.31;10386648;28;1945;-46
2022/12/26 02:16:18;;;;;;;;;;;;;;;16.44;40.55;95784.16;10407523;28;2006;-45
2022/12/26 02:21:31;;;;;;;;;;;;;;;16.46;40.45;95776.84;10400148;28;2044;-50
2022/12/26 02:26:37;;;;;;;;;;;;;;;16.47;40.49;95783.63;10396917;28;4368;-47
2022/12/26 02:31:55;;;;;;;;;;;;;;;16.46;40.75;95780.25;10394591;28;1990;-46
2022/12/26 02:37:04;;;;;;;;;;;;;;;16.39;40.66;95776.22;10405721;28;2184;-44
2022/12/26 02:42:08;;;;;;;;;;;;;;;16.43;40.53;95774.69;10402890;28;1945;-46
2022/12/26 02:47:27;;;;;;;;;;;;;;;16.50;40.41;95770.09;10422053;28;1946;-46
2022/12/26 03:14:07;;;;;;;;;;;;;;;16.37;40.65;95752.94;10403352;28;1921;-47
2022/12/26 03:19:08;;;;;;;;;;;;;;;16.37;40.66;95763.41;10399345;28;1957;-47
2022/12/26 03:24:09;;;;;;;;;;;;;;;16.41;40.50;95774.94;10414276;28;1935;-46
2022/12/26 03:34:29;;;;;;;;;;;;;;;16.40;40.58;95773.38;10403505;28;2025;-46
2022/12/26 04:44:33;;;;;;;;;;;;;;;16.41;40.37;95795.09;10395646;28;1938;-47
2022/12/26 04:55:01;;;;;;;;;;;;;;;16.40;40.40;95794.31;10394449;28;1934;-45
2022/12/26 05:00:02;;;;;;;;;;;;;;;16.36;40.55;95787.19;10398382;28;1905;-45
2022/12/26 05:10:25;;;;;;;;;;;;;;;16.40;40.33;95793.53;10400828;28;1943;-49
2022/12/26 05:15:25;;;;;;;;;;;;;;;16.38;40.29;95798.22;10400759;28;2030;-46
2022/12/26 05:31:05;;;;;;;;;;;;;;;16.34;40.49;95808.38;10396655;28;4701;-46
2022/12/26 05:36:05;;;;;;;;;;;;;;;16.41;40.22;95816.00;10395798;28;2133;-47
2022/12/26 05:41:06;;;;;;;;;;;;;;;16.35;40.35;95809.16;10410059;28;2113;-44
2022/12/26 05:46:10;;;;;;;;;;;;;;;16.36;40.37;95810.75;10397930;28;1934;-47
2022/12/26 05:51:10;;;;;;;;;;;;;;;16.35;40.45;95823.03;10393460;28;1952;-46
2022/12/26 05:56:11;;;;;;;;;;;;;;;16.39;40.21;95823.31;10393871;28;1959;-45
2022/12/26 06:01:13;;;;;;;;;;;;;;;16.36;40.30;95826.44;10399540;28;1913;-47
2022/12/26 06:06:13;;;;;;;;;;;;;;;16.37;40.19;95825.38;10387572;28;1977;-45
2022/12/26 06:11:14;;;;;;;;;;;;;;;16.37;40.34;95817.53;10400136;28;1980;-44
2022/12/26 06:16:15;;;;;;;;;;;;;;;16.37;40.22;95817.53;10400202;28;1958;-46
2022/12/26 06:21:25;;;;;;;;;;;;;;;16.37;40.24;95805.25;10395509;28;1922;-45
2022/12/26 06:26:26;;;;;;;;;;;;;;;16.35;40.34;95817.00;10408818;28;4428;-47
2022/12/26 06:31:26;;;;;;;;;;;;;;;16.33;40.30;95814.63;10402338;28;2017;-50
2022/12/26 06:36:26;;;;;;;;;;;;;;;16.32;40.43;95813.06;10406618;28;2055;-45
2022/12/26 06:41:27;;;;;;;;;;;;;;;16.30;40.29;95805.44;10397161;28;1929;-46
2022/12/26 06:46:27;;;;;;;;;;;;;;;16.30;40.39;95788.94;10406097;28;2018;-47
2022/12/26 06:51:28;;;;;;;;;;;;;;;16.30;40.22;95787.13;10403179;28;1998;-46
2022/12/26 06:56:28;;;;;;;;;;;;;;;16.27;40.34;95794.69;10400593;28;1957;-46
2022/12/26 07:01:29;;;;;;;;;;;;;;;16.31;40.24;95806.25;10393280;28;2184;-45
2022/12/26 07:06:30;;;;;;;;;;;;;;;16.29;40.30;95814.34;10401024;28;1975;-47
2022/12/26 07:11:31;;;;;;;;;;;;;;;16.29;40.33;95818.78;10403065;28;1914;-49
2022/12/26 07:16:35;;;;;;;;;;;;;;;16.26;40.38;95812.19;10404661;28;2152;-45
2022/12/26 07:21:35;;;;;;;;;;;;;;;16.26;40.34;95799.13;10401187;28;1937;-48
2022/12/26 07:26:35;;;;;;;;;;;;;;;16.27;40.27;95803.34;10400592;28;4413;-49
2022/12/26 07:31:38;;;;;;;;;;;;;;;16.27;40.30;95813.78;10392266;28;2069;-45
2022/12/26 07:36:38;;;;;;;;;;;;;;;16.27;40.32;95811.19;10386113;28;1768;-45
2022/12/26 07:41:57;;;;;;;;;;;;;;;16.26;40.28;95816.63;10397001;28;1973;-48
2022/12/26 07:46:58;;;;;;;;;;;;;;;16.25;40.33;95823.72;10402300;28;1914;-48
2022/12/26 07:51:58;;;;;;;;;;;;;;;16.29;40.26;95824.81;10395204;28;2040;-45
2022/12/26 07:57:01;;;;;;;;;;;;;;;16.29;40.29;95818.78;10401475;28;1871;-44
2022/12/26 08:02:03;;;;;;;;;;;;;;;16.28;40.36;95820.59;10392005;28;1967;-48
2022/12/26 08:07:04;;;;;;;;;;;;;;;16.33;40.16;95819.88;10399018;28;1941;-50
2022/12/26 08:12:04;;;;;;;;;;;;;;;16.33;40.18;95819.88;10394933;28;2020;-46
2022/12/26 08:17:04;;;;;;;;;;;;;;;16.32;40.33;95825.34;10395440;28;1969;-44
2022/12/26 08:22:04;;;;;;;;;;;;;;;16.33;40.31;95826.91;10393941;28;2096;-46
2022/12/26 08:27:05;;;;;;;;;;;;;;;16.32;40.37;95815.69;10396173;28;4457;-45
2022/12/26 08:32:05;;;;;;;;;;;;;;;16.36;40.34;95811.53;10398047;28;1922;-47
2022/12/26 08:37:05;;;;;;;;;;;;;;;16.38;40.33;95825.16;10397293;28;1911;-46
2022/12/26 08:42:05;;;;;;;;;;;;;;;16.37;40.41;95817.53;10394818;28;1909;-45
2022/12/26 08:47:06;;;;;;;;;;;;;;;16.32;40.51;95809.66;10390232;28;1926;-44
2022/12/26 08:52:06;;;;;;;;;;;;;;;16.40;40.45;95814.44;10397466;28;2001;-45
2022/12/26 08:57:06;;;;;;;;;;;;;;;16.41;40.46;95816.00;10393199;28;1901;-45
2022/12/26 09:02:08;;;;;;;;;;;;;;;16.51;40.26;95814.34;10385528;28;1928;-45
2022/12/26 09:07:08;;;;;;;;;;;;;;;16.47;40.27;95807.97;10407028;28;1930;-45
2022/12/26 09:12:09;;;;;;;;;;;;;;;16.55;40.32;95806.81;10407044;28;1915;-46
2022/12/26 09:17:10;;;;;;;;;;;;;;;16.57;40.31;95800.25;10400837;28;2172;-45
2022/12/26 09:27:29;;;;;;;;;;;;;;;16.59;40.35;95802.66;10384639;28;4590;-48
2022/12/26 09:32:33;;;;;;;;;;;;;;;16.61;40.44;95805.81;10389861;28;1982;-44
2022/12/26 09:37:35;;;;;;;;;;;;;;;16.56;40.50;95803.94;10397521;28;1935;-45
2022/12/26 09:42:35;;;;;;;;;;;;;;;16.57;40.54;95799.50;10393172;28;1949;-46
2022/12/26 09:47:55;;;;;;;;;;;;;;;16.59;40.84;95808.66;10402430;28;2026;-46
2022/12/26 09:52:56;;;;;;;;;;;;;;;16.56;40.68;95810.97;10402641;28;1985;-47
2022/12/26 09:57:58;;;;;;;;;;;;;;;16.59;40.80;95806.03;10413351;28;2029;-44
2022/12/26 10:02:59;;;;;;;;;;;;;;;16.59;40.75;95802.66;10407720;28;1898;-46
2022/12/26 10:08:18;;;;;;;;;;;;;;;16.54;40.94;95798.16;10419691;28;2065;-47
2022/12/26 10:13:36;;;;;;;;;;;;;;;16.59;40.83;95797.41;10392269;28;2025;-47
2022/12/26 10:19:05;;;;;;;;;;;;;;;16.58;40.88;95786.16;10399248;28;2026;-45
2022/12/26 10:24:05;;;;;;;;;;;;;;;16.61;40.75;95777.03;10400634;28;1906;-46
2022/12/26 10:29:07;;;;;;;;;;;;;;;16.59;40.96;95772.03;10402290;28;4502;-45
2022/12/26 10:34:07;;;;;;;;;;;;;;;16.58;40.91;95765.22;10392751;28;1961;-45
2022/12/26 10:39:12;;;;;;;;;;;;;;;16.57;40.98;95762.88;10399473;28;1922;-46
2022/12/26 10:44:12;;;;;;;;;;;;;;;16.61;40.84;95769.94;10399382;28;2178;-46
2022/12/26 10:49:14;;;;;;;;;;;;;;;16.57;40.94;95775.94;10403710;28;2023;-45
2022/12/26 10:54:18;;;;;;;;;;;;;;;16.55;40.98;95775.41;10401884;28;1938;-46
2022/12/26 10:59:20;;;;;;;;;;;;;;;16.53;40.98;95770.41;10403943;28;1974;-44
2022/12/26 11:04:21;;;;;;;;;;;;;;;16.51;41.03;95775.09;10416946;28;1967;-45
2022/12/26 11:09:22;;;;;;;;;;;;;;;16.50;41.05;95770.09;10400119;28;2104;-47
2022/12/26 11:14:27;;;;;;;;;;;;;;;16.52;40.95;95771.44;10391647;28;2068;-45
2022/12/26 11:19:27;;;;;;;;;;;;;;;16.47;40.96;95775.78;10405801;28;1995;-45
2022/12/26 11:24:27;;;;;;;;;;;;;;;16.54;40.88;95779.03;10394473;28;1961;-44
2022/12/26 11:29:28;;;;;;;;;;;;;;;16.49;40.94;95773.72;10401018;28;4564;-45
2022/12/26 11:34:31;;;;;;;;;;;;;;;16.47;40.91;95779.19;10395687;28;2020;-45
2022/12/26 11:39:32;;;;;;;;;;;;;;;16.43;40.91;95777.31;10404675;28;2057;-46
2022/12/26 11:44:33;;;;;;;;;;;;;;;16.42;40.98;95787.00;10397008;28;1994;-46
2022/12/26 11:49:35;;;;;;;;;;;;;;;16.53;40.59;95782.69;10398064;28;1980;-45
2022/12/26 11:54:35;;;;;;;;;;;;;;;16.50;40.74;95794.44;10411071;28;2045;-45
2022/12/26 11:59:36;;;;;;;;;;;;;;;16.50;40.73;95793.66;10395338;28;2093;-47
2022/12/26 12:04:36;;;;;;;;;;;;;;;16.54;40.47;95816.47;10397148;28;2092;-44
2022/12/26 12:09:39;;;;;;;;;;;;;;;16.46;40.75;95808.22;10394055;28;2014;-49
2022/12/26 12:14:42;;;;;;;;;;;;;;;16.52;40.59;95836.06;10391124;28;2168;-44
2022/12/26 12:19:52;;;;;;;;;;;;;;;16.49;40.52;95852.22;10396487;28;1961;-46
2022/12/26 12:24:59;;;;;;;;;;;;;;;16.51;40.55;95877.13;10392871;28;2033;-45
2022/12/26 12:30:19;;;;;;;;;;;;;;;16.49;40.52;95886.22;10403701;28;4503;-45
2022/12/26 12:35:19;;;;;;;;;;;;;;;16.53;40.43;95869.03;10395284;28;1937;-44
2022/12/26 12:40:23;;;;;;;;;;;;;;;16.44;40.71;95878.34;10405588;28;1854;-44
2022/12/26 12:45:35;;;;;;;;;;;;;;;16.51;40.50;95881.56;10415416;28;1926;-44
2022/12/26 12:50:42;;;;;;;;;;;;;;;16.51;40.50;95881.56;10397448;28;1929;-44
2022/12/26 12:55:54;;;;;;;;;;;;;;;16.44;40.66;95891.41;10397731;28;2046;-45
2022/12/26 13:00:55;;;;;;;;;;;;;;;16.43;40.57;95902.91;10401077;28;2105;-45
2022/12/26 13:06:04;;;;;;;;;;;;;;;16.47;40.45;95901.38;10409336;28;1975;-44
2022/12/26 13:11:13;;;;;;;;;;;;;;;16.50;40.46;95925.28;10391938;28;1989;-43
2022/12/26 13:16:18;;;;;;;;;;;;;;;16.40;40.64;95925.13;10388694;28;1945;-45
2022/12/26 13:21:18;;;;;;;;;;;;;;;16.52;40.39;95917.19;10406453;28;1902;-44
2022/12/26 13:26:21;;;;;;;;;;;;;;;16.50;40.52;95920.06;10403513;28;4448;-45
2022/12/26 13:31:21;;;;;;;;;;;;;;;16.41;40.64;95920.66;10402027;28;2069;-45
2022/12/26 13:36:40;;;;;;;;;;;;;;;16.39;40.58;95938.44;10399925;28;1898;-46
2022/12/26 13:47:27;;;;;;;;;;;;;;;16.44;40.60;95935.88;10406256;28;1914;-44
2022/12/26 13:52:31;;;;;;;;;;;;;;;16.47;40.56;95935.38;10399061;28;1966;-48
2022/12/26 13:57:37;;;;;;;;;;;;;;;16.46;40.54;95937.25;10387217;28;2057;-45
2022/12/26 14:02:51;;;;;;;;;;;;;;;16.48;40.49;95944.84;10384255;28;2070;-46
2022/12/26 14:08:04;;;;;;;;;;;;;;;16.46;40.52;95939.06;10393345;28;1950;-45
2022/12/26 14:13:13;;;;;;;;;;;;;;;16.44;40.53;95956.81;10390541;28;2025;-44
2022/12/26 14:18:13;;;;;;;;;;;;;;;16.44;40.56;95956.81;10392357;28;1946;-44
2022/12/26 14:23:23;;;;;;;;;;;;;;;16.46;40.53;95973.06;10398650;28;1957;-44
2022/12/26 14:28:23;;;;;;;;;;;;;;;16.43;40.64;95979.56;10392846;28;4581;-44
2022/12/26 14:33:23;;;;;;;;;;;;;;;16.43;40.54;95981.38;10389524;28;2004;-44
2022/12/26 14:38:24;;;;;;;;;;;;;;;16.46;40.74;95988.78;10405687;28;2053;-45
2022/12/26 14:43:30;;;;;;;;;;;;;;;16.43;40.71;95989.25;10405306;28;1992;-45
2022/12/26 14:48:33;;;;;;;;;;;;;;;16.41;40.64;95986.06;10401877;28;2036;-44
2022/12/26 14:53:33;;;;;;;;;;;;;;;16.36;40.80;95999.09;10407474;28;2025;-44
2022/12/26 14:58:47;;;;;;;;;;;;;;;16.39;40.82;96004.63;10405714;28;1890;-46
2022/12/26 15:03:47;;;;;;;;;;;;;;;16.47;40.64;96006.84;10400007;28;1993;-44
2022/12/26 15:08:51;;;;;;;;;;;;;;;16.50;40.52;96000.38;10399502;28;1981;-45
2022/12/26 15:13:54;;;;;;;;;;;;;;;16.41;40.76;95993.91;10403497;28;1981;-44
2022/12/26 15:18:57;;;;;;;;;;;;;;;16.40;40.73;95993.16;10403905;28;1995;-46
2022/12/26 15:24:00;;;;;;;;;;;;;;;16.39;40.80;95980.28;10399878;28;2181;-44
2022/12/26 15:29:19;;;;;;;;;;;;;;;16.44;40.66;95975.13;10396512;28;4454;-46
2022/12/26 15:34:35;;;;;;;;;;;;;;;16.40;40.75;95964.38;10415997;28;1926;-45
2022/12/26 15:39:53;;;;;;;;;;;;;;;16.38;40.79;95973.47;10405987;28;2049;-46
2022/12/26 15:45:03;;;;;;;;;;;;;;;16.43;40.57;95976.16;10401491;28;1910;-45
2022/12/26 15:50:15;;;;;;;;;;;;;;;16.38;40.81;95976.09;10401952;28;2167;-43
2022/12/26 15:55:25;;;;;;;;;;;;;;;16.43;40.60;95981.38;10405651;28;1886;-45
2022/12/26 16:00:29;;;;;;;;;;;;;;;16.41;40.64;95978.22;10412322;28;2091;-45
2022/12/26 16:05:38;;;;;;;;;;;;;;;16.36;40.79;95978.16;10394978;28;1994;-45
2022/12/26 16:10:38;;;;;;;;;;;;;;;16.39;40.66;95965.38;10400195;28;1926;-45
2022/12/26 16:15:48;;;;;;;;;;;;;;;16.40;40.69;95955.72;10404033;28;2024;-48
2022/12/26 16:26:14;;;;;;;;;;;;;;;16.32;40.83;95946.47;10390129;28;2034;-45
2022/12/26 16:31:18;;;;;;;;;;;;;;;16.36;40.80;95942.34;10393050;28;4761;-46
2022/12/26 16:36:20;;;;;;;;;;;;;;;16.37;40.85;95920.38;10415471;28;2060;-48
2022/12/26 16:41:21;;;;;;;;;;;;;;;16.35;40.76;95913.78;10400085;28;2037;-45
2022/12/26 16:46:23;;;;;;;;;;;;;;;16.37;40.80;95930.84;10402658;28;2246;-45
2022/12/26 16:51:43;;;;;;;;;;;;;;;16.41;40.62;95937.16;10376331;28;1985;-48
2022/12/26 16:56:46;;;;;;;;;;;;;;;16.39;40.77;95923.53;10396943;28;1926;-45
2022/12/26 17:01:51;;;;;;;;;;;;;;;16.46;40.62;95928.59;10386184;28;1970;-46
2022/12/26 17:06:52;;;;;;;;;;;;;;;16.36;40.88;95912.78;10394538;28;2009;-47
2022/12/26 17:11:55;;;;;;;;;;;;;;;16.45;40.62;95927.78;10394653;28;1953;-45
2022/12/26 17:16:59;;;;;;;;;;;;;;;16.37;40.79;95925.59;10396278;28;2102;-45
2022/12/26 17:22:19;;;;;;;;;;;;;;;16.35;40.87;95945.97;10394674;28;2017;-47
2022/12/26 17:27:23;;;;;;;;;;;;;;;16.42;40.62;95953.66;10400555;28;4472;-45
2022/12/26 17:32:29;;;;;;;;;;;;;;;16.40;40.84;95945.25;10408176;28;1912;-46
2022/12/26 17:37:29;;;;;;;;;;;;;;;16.40;40.91;95934.78;10388374;28;2069;-47
2022/12/26 17:42:30;;;;;;;;;;;;;;;16.40;41.00;95955.72;10402348;28;2115;-47
2022/12/26 17:47:30;;;;;;;;;;;;;;;16.45;41.17;95946.09;10395277;28;2103;-47
2022/12/26 17:52:30;;;;;;;;;;;;;;;16.57;41.00;95956.50;10393523;28;2062;-47
2022/12/26 17:57:35;;;;;;;;;;;;;;;16.60;41.09;95935.88;10390411;28;2021;-45
2022/12/26 18:02:35;;;;;;;;;;;;;;;16.71;41.25;95934.16;10393667;28;2069;-46
2022/12/26 18:07:36;;;;;;;;;;;;;;;16.77;41.00;95957.53;10403437;28;1972;-46
2022/12/26 18:12:36;;;;;;;;;;;;;;;16.77;41.06;95947.06;10424383;28;2080;-46
2022/12/26 18:17:36;;;;;;;;;;;;;;;16.81;41.01;95939.50;10404236;28;1945;-48
2022/12/26 18:22:37;;;;;;;;;;;;;;;16.85;40.95;95964.97;10395951;28;1890;-45
2022/12/26 18:27:37;;;;;;;;;;;;;;;16.91;41.10;95963.19;10400206;28;4392;-46
2022/12/26 18:32:38;;;;;;;;;;;;;;;16.95;41.13;95932.84;10412119;28;2010;-50
2022/12/26 18:37:39;;;;;;;;;;;;;;;17.01;41.18;95937.91;10408828;28;1997;-46
2022/12/26 18:42:39;;;;;;;;;;;;;;;17.39;40.81;95957.94;10398894;28;1945;-48
2022/12/26 18:47:40;;;;;;;;;;;;;;;17.53;41.15;95953.91;10405363;28;1934;-46
2022/12/26 18:52:40;;;;;;;;;;;;;;;17.54;40.84;95952.84;10407259;28;1941;-47
2022/12/26 18:57:41;;;;;;;;;;;;;;;17.58;40.68;95969.66;10396032;28;1886;-46
2022/12/26 19:02:41;;;;;;;;;;;;;;;17.62;40.89;95962.09;10400280;28;2136;-45
2022/12/26 19:07:42;;;;;;;;;;;;;;;17.79;40.85;95981.91;10411517;28;1910;-56
2022/12/26 19:12:42;;;;;;;;;;;;;;;17.90;40.51;95980.16;10416258;28;1586;-63
2022/12/26 19:17:44;;;;;;;;;;;;;;;17.99;40.42;95965.53;10422712;28;1456;-55
2022/12/26 19:22:45;;;;;;;;;;;;;;;18.15;40.51;95959.38;10410176;28;1564;-49
2022/12/26 19:27:45;;;;;;;;;;;;;;;18.28;40.49;95945.00;10417014;28;4488;-46
2022/12/26 19:32:47;;;;;;;;;;;;;;;18.29;40.31;95967.56;10404574;28;1709;-45
2022/12/26 19:37:48;;;;;;;;;;;;;;;18.33;40.18;95952.91;10407342;28;2135;-46
2022/12/26 19:42:48;;;;;;;;;;;;;;;18.41;39.97;95973.41;10409547;28;1102;-44
2022/12/26 19:47:52;;;;;;;;;;;;;;;18.50;40.38;95961.44;10401260;28;1973;-45
2022/12/26 19:52:52;;;;;;;;;;;;;;;18.54;39.92;95967.75;10406692;28;1441;-47
2022/12/26 19:57:52;;;;;;;;;;;;;;;18.56;40.33;95976.97;10408798;28;1110;-44
2022/12/26 20:02:53;;;;;;;;;;;;;;;18.59;40.08;95965.94;10401785;28;1449;-57
2022/12/26 20:07:53;;;;;;;;;;;;;;;18.68;40.17;95942.59;10406406;28;1898;-57
2022/12/26 20:12:53;;;;;;;;;;;;;;;18.79;40.08;95943.44;10410168;28;1173;-53
2022/12/26 20:17:54;;;;;;;;;;;;;;;18.87;39.91;95948.19;10407504;28;1394;-54
2022/12/26 20:22:54;;;;;;;;;;;;;;;18.90;39.87;95953.72;10405992;28;1574;-55
2022/12/26 20:27:55;;;;;;;;;;;;;;;18.93;39.86;95950.59;10401197;28;4503;-50
2022/12/26 20:32:55;;;;;;;;;;;;;;;18.97;39.95;95935.09;10422975;28;2226;-50
2022/12/26 20:37:55;;;;;;;;;;;;;;;18.99;40.08;95931.16;10421038;28;1413;-45
2022/12/26 20:42:55;;;;;;;;;;;;;;;19.11;40.04;95942.22;10404739;28;1660;-60
2022/12/26 20:47:56;;;;;;;;;;;;;;;19.20;40.10;95932.78;10410099;28;1975;-58
2022/12/26 20:52:56;;;;;;;;;;;;;;;19.22;40.17;95941.22;10405479;28;1417;-56
2022/12/26 20:57:56;;;;;;;;;;;;;;;19.29;40.26;95965.38;10408561;28;1229;-56
2022/12/26 21:02:57;;;;;;;;;;;;;;;19.31;40.35;95978.25;10400704;28;1661;-59
2022/12/26 21:07:57;;;;;;;;;;;;;;;19.33;40.09;96005.91;10408087;28;1957;-51
2022/12/26 21:12:57;;;;;;;;;;;;;;;19.37;40.36;96117.38;10404291;28;1617;-60
2022/12/26 21:17:58;;;;;;;;;;;;;;;19.43;40.17;96121.59;10424971;28;1559;-59
2022/12/26 21:23:04;;;;;;;;;;;;;;;19.45;40.14;96119.50;10396782;28;1536;-47
2022/12/26 21:28:05;;;;;;;;;;;;;;;19.55;40.87;96117.97;10408343;28;4607;-45
2022/12/26 21:33:06;;;;;;;;;;;;;;;19.55;40.31;96137.16;10393920;28;2066;-47
2022/12/26 21:38:06;;;;;;;;;;;;;;;19.63;40.41;96138.50;10398189;28;1930;-45
2022/12/26 21:43:06;;;;;;;;;;;;;;;19.61;40.14;96136.13;10408400;28;1961;-45
2022/12/26 21:48:07;;;;;;;;;;;;;;;19.54;39.97;96150.59;10395250;28;2088;-45
2022/12/26 21:53:07;;;;;;;;;;;;;;;19.52;40.19;96148.19;10403755;28;1993;-46
2022/12/26 21:58:07;;;;;;;;;;;;;;;19.53;40.11;96149.78;10400038;28;2351;-44
2022/12/26 22:08:26;;;;;;;;;;;;;;;19.59;40.70;96154.00;10404928;28;2057;-47
2022/12/26 22:13:26;;;;;;;;;;;;;;;19.60;40.72;96150.31;10406158;28;2127;-48
2022/12/26 22:18:34;;;;;;;;;;;;;;;19.60;41.00;96165.31;10400558;28;2064;-44
2022/12/26 22:23:34;;;;;;;;;;;;;;;19.56;41.14;96164.25;10404345;28;2074;-46
2022/12/26 22:28:34;;;;;;;;;;;;;;;19.53;41.18;96152.41;10406678;28;4479;-46
2022/12/26 22:33:35;;;;;;;;;;;;;;;19.51;41.21;96151.09;10402326;28;1999;-45
2022/12/26 22:38:35;;;;;;;;;;;;;;;19.47;41.28;96151.59;10406766;28;1972;-47
2022/12/26 22:43:36;;;;;;;;;;;;;;;19.43;41.44;96171.53;10399448;28;2133;-44
2022/12/26 22:48:36;;;;;;;;;;;;;;;19.43;41.41;96182.06;10397447;28;2077;-45
2022/12/26 22:53:36;;;;;;;;;;;;;;;19.40;41.62;96182.59;10413892;28;2026;-47
2022/12/26 22:58:37;;;;;;;;;;;;;;;19.39;41.62;96185.47;10405062;28;1961;-45
2022/12/26 23:03:37;;;;;;;;;;;;;;;19.38;41.48;96187.31;10392316;28;2140;-44
2022/12/26 23:08:37;;;;;;;;;;;;;;;19.34;41.72;96178.34;10404204;28;2133;-45
2022/12/26 23:13:38;;;;;;;;;;;;;;;19.32;41.78;96180.41;10399416;28;2024;-47
2022/12/26 23:24:00;;;;;;;;;;;;;;;19.30;41.74;96192.22;10402856;28;1991;-45
2022/12/26 23:34:21;;;;;;;;;;;;;;;19.27;41.76;96188.25;10395685;28;1993;-45
2022/12/26 23:39:21;;;;;;;;;;;;;;;19.28;41.72;96200.38;10396486;28;2112;-48
2022/12/26 23:44:21;;;;;;;;;;;;;;;19.26;41.84;96201.66;10403454;28;1986;-44
2022/12/26 23:49:22;;;;;;;;;;;;;;;19.25;41.73;96221.88;10402893;28;1999;-44
2022/12/26 23:54:29;;;;;;;;;;;;;;;19.24;41.86;96216.91;10400065;28;2029;-45
2022/12/26 23:59:29;;;;;;;;;;;;;;;19.25;41.67;96221.88;10397088;28;2195;-44
